sensor_id;sensor_type;location;lat;lon;timestamp;P1;durP1;ratioP1;P2;durP2;ratioP2
22015;SDS011;64992;51.698;-0.292;2022-11-18T00:00:53;3.58;;;2.00;;
22015;SDS011;64992;51.698;-0.292;2022-11-18T00:03:19;6.97;;;2.00;;
22015;SDS011;64992;51.698;-0.292;2022-11-18T00:05:55;5.80;;;2.67;;
22015;SDS011;64992;51.698;-0.292;2022-11-18T00:08:21;10.30;;;2.20;;
22015;SDS011;64992;51.698;-0.292;2022-11-18T00:10:47;5.97;;;2.78;;
22015;SDS011;64992;51.698;-0.292;2022-11-18T00:13:14;7.40;;;2.65;;
22015;SDS011;64992;51.698;-0.292;2022-11-18T00:16:00;6.00;;;2.45;;
22015;SDS011;64992;51.698;-0.292;2022-11-18T00:18:26;12.55;;;2.67;;
22015;SDS011;64992;51.698;-0.292;2022-11-18T00:20:52;7.30;;;2.55;;
22015;SDS011;64992;51.698;-0.292;2022-11-18T00:23:18;5.68;;;2.42;;
22015;SDS011;64992;51.698;-0.292;2022-11-18T00:25:44;10.80;;;2.75;;
22015;SDS011;64992;51.698;-0.292;2022-11-18T00:28:10;3.63;;;2.13;;
22015;SDS011;64992;51.698;-0.292;2022-11-18T00:30:36;10.07;;;2.28;;
22015;SDS011;64992;51.698;-0.292;2022-11-18T00:33:02;7.15;;;2.58;;
22015;SDS011;64992;51.698;-0.292;2022-11-18T00:35:28;12.65;;;2.85;;
22015;SDS011;64992;51.698;-0.292;2022-11-18T00:37:54;3.88;;;2.53;;
22015;SDS011;64992;51.698;-0.292;2022-11-18T00:40:20;9.75;;;3.28;;
22015;SDS011;64992;51.698;-0.292;2022-11-18T00:42:46;10.80;;;2.55;;
22015;SDS011;64992;51.698;-0.292;2022-11-18T00:45:15;7.60;;;2.30;;
22015;SDS011;64992;51.698;-0.292;2022-11-18T00:47:41;8.73;;;2.35;;
22015;SDS011;64992;51.698;-0.292;2022-11-18T00:50:08;10.90;;;2.67;;
22015;SDS011;64992;51.698;-0.292;2022-11-18T00:52:34;9.60;;;2.60;;
22015;SDS011;64992;51.698;-0.292;2022-11-18T00:55:00;9.88;;;2.83;;
22015;SDS011;64992;51.698;-0.292;2022-11-18T00:57:26;9.88;;;2.65;;
22015;SDS011;64992;51.698;-0.292;2022-11-18T00:59:52;10.20;;;2.50;;
22015;SDS011;64992;51.698;-0.292;2022-11-18T01:02:18;9.45;;;2.65;;
22015;SDS011;64992;51.698;-0.292;2022-11-18T01:04:44;7.15;;;2.42;;
22015;SDS011;64992;51.698;-0.292;2022-11-18T01:07:10;4.47;;;2.05;;
22015;SDS011;64992;51.698;-0.292;2022-11-18T01:09:36;9.88;;;3.10;;
22015;SDS011;64992;51.698;-0.292;2022-11-18T01:12:02;7.22;;;2.50;;
22015;SDS011;64992;51.698;-0.292;2022-11-18T01:14:47;5.28;;;2.33;;
22015;SDS011;64992;51.698;-0.292;2022-11-18T01:17:13;6.32;;;2.47;;
22015;SDS011;64992;51.698;-0.292;2022-11-18T01:19:39;8.95;;;2.85;;
22015;SDS011;64992;51.698;-0.292;2022-11-18T01:22:05;8.90;;;2.38;;
22015;SDS011;64992;51.698;-0.292;2022-11-18T01:24:31;6.63;;;2.63;;
22015;SDS011;64992;51.698;-0.292;2022-11-18T01:26:59;10.10;;;2.80;;
22015;SDS011;64992;51.698;-0.292;2022-11-18T01:29:26;7.95;;;2.80;;
22015;SDS011;64992;51.698;-0.292;2022-11-18T01:31:52;10.48;;;3.03;;
22015;SDS011;64992;51.698;-0.292;2022-11-18T01:34:18;5.72;;;2.42;;
22015;SDS011;64992;51.698;-0.292;2022-11-18T01:36:44;6.18;;;2.55;;
22015;SDS011;64992;51.698;-0.292;2022-11-18T01:39:11;8.07;;;2.47;;
22015;SDS011;64992;51.698;-0.292;2022-11-18T01:41:37;6.95;;;2.42;;
22015;SDS011;64992;51.698;-0.292;2022-11-18T01:44:04;5.72;;;2.33;;
22015;SDS011;64992;51.698;-0.292;2022-11-18T01:46:31;7.15;;;2.50;;
22015;SDS011;64992;51.698;-0.292;2022-11-18T01:49:08;15.60;;;2.75;;
22015;SDS011;64992;51.698;-0.292;2022-11-18T01:51:36;6.00;;;2.35;;
22015;SDS011;64992;51.698;-0.292;2022-11-18T01:54:09;9.13;;;3.05;;
22015;SDS011;64992;51.698;-0.292;2022-11-18T01:56:39;9.50;;;2.70;;
22015;SDS011;64992;51.698;-0.292;2022-11-18T01:59:08;6.25;;;2.28;;
22015;SDS011;64992;51.698;-0.292;2022-11-18T02:01:35;6.45;;;2.22;;
22015;SDS011;64992;51.698;-0.292;2022-11-18T02:04:01;10.63;;;2.58;;
22015;SDS011;64992;51.698;-0.292;2022-11-18T02:06:28;8.20;;;2.95;;
22015;SDS011;64992;51.698;-0.292;2022-11-18T02:08:54;7.07;;;2.22;;
22015;SDS011;64992;51.698;-0.292;2022-11-18T02:11:21;5.00;;;2.28;;
22015;SDS011;64992;51.698;-0.292;2022-11-18T02:14:07;8.20;;;2.85;;
22015;SDS011;64992;51.698;-0.292;2022-11-18T02:19:00;6.60;;;2.13;;
22015;SDS011;64992;51.698;-0.292;2022-11-18T02:29:23;5.80;;;2.00;;
22015;SDS011;64992;51.698;-0.292;2022-11-18T02:31:57;6.93;;;2.40;;
22015;SDS011;64992;51.698;-0.292;2022-11-18T02:37:04;5.72;;;2.22;;
22015;SDS011;64992;51.698;-0.292;2022-11-18T02:39:33;6.97;;;2.17;;
22015;SDS011;64992;51.698;-0.292;2022-11-18T02:42:02;3.75;;;2.38;;
22015;SDS011;64992;51.698;-0.292;2022-11-18T02:44:29;6.97;;;2.13;;
22015;SDS011;64992;51.698;-0.292;2022-11-18T02:46:57;6.45;;;2.30;;
22015;SDS011;64992;51.698;-0.292;2022-11-18T02:49:41;9.60;;;2.63;;
22015;SDS011;64992;51.698;-0.292;2022-11-18T02:54:33;9.05;;;2.45;;
22015;SDS011;64992;51.698;-0.292;2022-11-18T02:57:02;4.85;;;2.10;;
22015;SDS011;64992;51.698;-0.292;2022-11-18T02:59:28;6.45;;;2.15;;
22015;SDS011;64992;51.698;-0.292;2022-11-18T03:01:55;10.93;;;2.70;;
22015;SDS011;64992;51.698;-0.292;2022-11-18T03:04:21;10.68;;;2.20;;
22015;SDS011;64992;51.698;-0.292;2022-11-18T03:06:55;6.45;;;2.15;;
22015;SDS011;64992;51.698;-0.292;2022-11-18T03:09:31;9.98;;;2.28;;
22015;SDS011;64992;51.698;-0.292;2022-11-18T03:16:57;8.43;;;2.33;;
22015;SDS011;64992;51.698;-0.292;2022-11-18T03:24:41;9.25;;;2.42;;
22015;SDS011;64992;51.698;-0.292;2022-11-18T03:27:20;3.28;;;1.98;;
22015;SDS011;64992;51.698;-0.292;2022-11-18T03:29:51;9.55;;;2.60;;
22015;SDS011;64992;51.698;-0.292;2022-11-18T03:32:28;6.78;;;2.53;;
22015;SDS011;64992;51.698;-0.292;2022-11-18T03:34:57;11.45;;;2.13;;
22015;SDS011;64992;51.698;-0.292;2022-11-18T03:37:25;4.40;;;2.47;;
22015;SDS011;64992;51.698;-0.292;2022-11-18T03:39:52;4.15;;;2.28;;
22015;SDS011;64992;51.698;-0.292;2022-11-18T03:45:18;7.20;;;2.13;;
22015;SDS011;64992;51.698;-0.292;2022-11-18T03:47:51;5.65;;;2.17;;
22015;SDS011;64992;51.698;-0.292;2022-11-18T03:50:20;2.50;;;1.30;;
22015;SDS011;64992;51.698;-0.292;2022-11-18T03:52:47;4.97;;;1.88;;
22015;SDS011;64992;51.698;-0.292;2022-11-18T03:55:18;7.90;;;1.90;;
22015;SDS011;64992;51.698;-0.292;2022-11-18T04:00:12;4.78;;;2.25;;
22015;SDS011;64992;51.698;-0.292;2022-11-18T04:02:40;7.70;;;1.95;;
22015;SDS011;64992;51.698;-0.292;2022-11-18T04:05:08;4.40;;;1.95;;
22015;SDS011;64992;51.698;-0.292;2022-11-18T04:07:37;9.80;;;2.28;;
22015;SDS011;64992;51.698;-0.292;2022-11-18T04:10:09;9.98;;;1.98;;
22015;SDS011;64992;51.698;-0.292;2022-11-18T04:12:38;7.10;;;2.33;;
22015;SDS011;64992;51.698;-0.292;2022-11-18T04:15:05;7.30;;;2.40;;
22015;SDS011;64992;51.698;-0.292;2022-11-18T04:17:31;8.23;;;2.15;;
22015;SDS011;64992;51.698;-0.292;2022-11-18T04:19:57;8.80;;;2.25;;
22015;SDS011;64992;51.698;-0.292;2022-11-18T04:22:23;5.80;;;2.25;;
22015;SDS011;64992;51.698;-0.292;2022-11-18T04:24:49;8.75;;;2.25;;
22015;SDS011;64992;51.698;-0.292;2022-11-18T04:27:15;10.07;;;2.33;;
22015;SDS011;64992;51.698;-0.292;2022-11-18T04:29:41;7.68;;;2.10;;
22015;SDS011;64992;51.698;-0.292;2022-11-18T04:32:08;5.25;;;2.05;;
22015;SDS011;64992;51.698;-0.292;2022-11-18T04:34:34;5.72;;;2.30;;
22015;SDS011;64992;51.698;-0.292;2022-11-18T04:37:00;4.35;;;1.63;;
22015;SDS011;64992;51.698;-0.292;2022-11-18T04:39:26;7.82;;;1.85;;
22015;SDS011;64992;51.698;-0.292;2022-11-18T04:41:52;2.05;;;1.65;;
22015;SDS011;64992;51.698;-0.292;2022-11-18T04:44:25;6.80;;;2.30;;
22015;SDS011;64992;51.698;-0.292;2022-11-18T04:46:51;6.50;;;2.00;;
22015;SDS011;64992;51.698;-0.292;2022-11-18T04:49:18;3.97;;;1.75;;
22015;SDS011;64992;51.698;-0.292;2022-11-18T04:51:44;6.63;;;2.10;;
22015;SDS011;64992;51.698;-0.292;2022-11-18T04:54:11;6.05;;;2.15;;
22015;SDS011;64992;51.698;-0.292;2022-11-18T04:56:37;5.85;;;2.20;;
22015;SDS011;64992;51.698;-0.292;2022-11-18T04:59:03;7.78;;;2.63;;
22015;SDS011;64992;51.698;-0.292;2022-11-18T05:01:30;5.68;;;1.70;;
22015;SDS011;64992;51.698;-0.292;2022-11-18T05:03:56;9.80;;;2.17;;
22015;SDS011;64992;51.698;-0.292;2022-11-18T05:06:22;4.63;;;2.22;;
22015;SDS011;64992;51.698;-0.292;2022-11-18T05:08:48;6.35;;;2.03;;
22015;SDS011;64992;51.698;-0.292;2022-11-18T05:11:14;8.40;;;2.05;;
22015;SDS011;64992;51.698;-0.292;2022-11-18T05:13:59;10.07;;;2.00;;
22015;SDS011;64992;51.698;-0.292;2022-11-18T05:16:25;4.78;;;2.22;;
22015;SDS011;64992;51.698;-0.292;2022-11-18T05:18:51;8.27;;;2.13;;
22015;SDS011;64992;51.698;-0.292;2022-11-18T05:21:17;9.13;;;2.00;;
22015;SDS011;64992;51.698;-0.292;2022-11-18T05:23:43;7.15;;;2.30;;
22015;SDS011;64992;51.698;-0.292;2022-11-18T05:26:09;7.00;;;2.40;;
22015;SDS011;64992;51.698;-0.292;2022-11-18T05:28:35;3.88;;;2.05;;
22015;SDS011;64992;51.698;-0.292;2022-11-18T05:31:05;5.20;;;1.90;;
22015;SDS011;64992;51.698;-0.292;2022-11-18T05:33:32;9.05;;;1.75;;
22015;SDS011;64992;51.698;-0.292;2022-11-18T05:36:01;4.05;;;2.13;;
22015;SDS011;64992;51.698;-0.292;2022-11-18T05:38:27;5.85;;;1.92;;
22015;SDS011;64992;51.698;-0.292;2022-11-18T05:40:53;2.88;;;2.42;;
22015;SDS011;64992;51.698;-0.292;2022-11-18T05:43:19;6.72;;;1.80;;
22015;SDS011;64992;51.698;-0.292;2022-11-18T05:45:45;6.60;;;1.77;;
22015;SDS011;64992;51.698;-0.292;2022-11-18T05:48:11;4.15;;;1.75;;
22015;SDS011;64992;51.698;-0.292;2022-11-18T05:50:37;6.93;;;1.60;;
22015;SDS011;64992;51.698;-0.292;2022-11-18T05:53:03;10.85;;;2.55;;
22015;SDS011;64992;51.698;-0.292;2022-11-18T05:55:50;3.47;;;1.60;;
22015;SDS011;64992;51.698;-0.292;2022-11-18T05:58:18;4.85;;;1.75;;
22015;SDS011;64992;51.698;-0.292;2022-11-18T06:00:44;6.28;;;1.80;;
22015;SDS011;64992;51.698;-0.292;2022-11-18T06:03:14;2.45;;;1.38;;
22015;SDS011;64992;51.698;-0.292;2022-11-18T06:05:41;5.20;;;1.70;;
22015;SDS011;64992;51.698;-0.292;2022-11-18T06:08:07;5.85;;;1.80;;
22015;SDS011;64992;51.698;-0.292;2022-11-18T06:10:33;6.22;;;2.00;;
22015;SDS011;64992;51.698;-0.292;2022-11-18T06:13:02;3.83;;;1.50;;
22015;SDS011;64992;51.698;-0.292;2022-11-18T06:15:36;6.28;;;1.88;;
22015;SDS011;64992;51.698;-0.292;2022-11-18T06:18:05;5.90;;;1.88;;
22015;SDS011;64992;51.698;-0.292;2022-11-18T06:20:31;5.05;;;1.73;;
22015;SDS011;64992;51.698;-0.292;2022-11-18T06:22:58;7.97;;;2.20;;
22015;SDS011;64992;51.698;-0.292;2022-11-18T06:25:25;6.55;;;2.13;;
22015;SDS011;64992;51.698;-0.292;2022-11-18T06:27:53;7.75;;;1.77;;
22015;SDS011;64992;51.698;-0.292;2022-11-18T06:30:21;3.65;;;1.77;;
22015;SDS011;64992;51.698;-0.292;2022-11-18T06:32:47;3.13;;;1.88;;
22015;SDS011;64992;51.698;-0.292;2022-11-18T06:35:13;6.57;;;1.80;;
22015;SDS011;64992;51.698;-0.292;2022-11-18T06:37:39;12.32;;;2.53;;
22015;SDS011;64992;51.698;-0.292;2022-11-18T06:40:05;7.30;;;2.00;;
22015;SDS011;64992;51.698;-0.292;2022-11-18T06:42:31;7.07;;;2.10;;
22015;SDS011;64992;51.698;-0.292;2022-11-18T06:45:16;5.93;;;2.05;;
22015;SDS011;64992;51.698;-0.292;2022-11-18T06:47:42;5.25;;;1.85;;
22015;SDS011;64992;51.698;-0.292;2022-11-18T06:50:08;4.88;;;2.15;;
22015;SDS011;64992;51.698;-0.292;2022-11-18T06:52:34;6.95;;;2.17;;
22015;SDS011;64992;51.698;-0.292;2022-11-18T06:55:00;5.60;;;2.17;;
22015;SDS011;64992;51.698;-0.292;2022-11-18T06:57:26;4.18;;;1.92;;
22015;SDS011;64992;51.698;-0.292;2022-11-18T06:59:52;6.00;;;2.33;;
22015;SDS011;64992;51.698;-0.292;2022-11-18T07:02:18;5.28;;;2.40;;
22015;SDS011;64992;51.698;-0.292;2022-11-18T07:04:44;3.42;;;1.63;;
22015;SDS011;64992;51.698;-0.292;2022-11-18T07:07:10;3.70;;;1.50;;
22015;SDS011;64992;51.698;-0.292;2022-11-18T07:09:36;6.97;;;2.20;;
22015;SDS011;64992;51.698;-0.292;2022-11-18T07:12:02;2.85;;;1.63;;
22015;SDS011;64992;51.698;-0.292;2022-11-18T07:14:29;5.05;;;2.13;;
22015;SDS011;64992;51.698;-0.292;2022-11-18T07:16:55;12.63;;;2.45;;
22015;SDS011;64992;51.698;-0.292;2022-11-18T07:19:21;7.75;;;2.10;;
22015;SDS011;64992;51.698;-0.292;2022-11-18T07:21:47;3.50;;;1.65;;
22015;SDS011;64992;51.698;-0.292;2022-11-18T07:24:13;3.05;;;1.88;;
22015;SDS011;64992;51.698;-0.292;2022-11-18T07:26:40;6.13;;;2.10;;
22015;SDS011;64992;51.698;-0.292;2022-11-18T07:29:06;10.43;;;2.55;;
22015;SDS011;64992;51.698;-0.292;2022-11-18T07:31:32;7.45;;;2.42;;
22015;SDS011;64992;51.698;-0.292;2022-11-18T07:34:00;7.03;;;2.25;;
22015;SDS011;64992;51.698;-0.292;2022-11-18T07:36:27;5.82;;;1.85;;
22015;SDS011;64992;51.698;-0.292;2022-11-18T07:38:53;8.07;;;2.30;;
22015;SDS011;64992;51.698;-0.292;2022-11-18T07:41:20;6.57;;;2.13;;
22015;SDS011;64992;51.698;-0.292;2022-11-18T07:43:47;5.78;;;2.35;;
22015;SDS011;64992;51.698;-0.292;2022-11-18T07:46:18;8.63;;;2.45;;
22015;SDS011;64992;51.698;-0.292;2022-11-18T07:48:44;9.32;;;3.33;;
22015;SDS011;64992;51.698;-0.292;2022-11-18T07:51:11;5.65;;;1.98;;
22015;SDS011;64992;51.698;-0.292;2022-11-18T07:53:38;6.53;;;2.05;;
22015;SDS011;64992;51.698;-0.292;2022-11-18T07:56:04;12.77;;;2.75;;
22015;SDS011;64992;51.698;-0.292;2022-11-18T07:58:31;5.43;;;2.35;;
22015;SDS011;64992;51.698;-0.292;2022-11-18T08:00:57;5.82;;;1.92;;
22015;SDS011;64992;51.698;-0.292;2022-11-18T08:03:26;3.70;;;2.17;;
22015;SDS011;64992;51.698;-0.292;2022-11-18T08:05:53;7.70;;;2.33;;
22015;SDS011;64992;51.698;-0.292;2022-11-18T08:08:23;11.90;;;2.05;;
22015;SDS011;64992;51.698;-0.292;2022-11-18T08:10:49;6.68;;;2.50;;
22015;SDS011;64992;51.698;-0.292;2022-11-18T08:13:15;7.20;;;2.00;;
22015;SDS011;64992;51.698;-0.292;2022-11-18T08:15:41;10.98;;;2.80;;
22015;SDS011;64992;51.698;-0.292;2022-11-18T08:18:08;8.00;;;2.03;;
22015;SDS011;64992;51.698;-0.292;2022-11-18T08:20:34;6.30;;;2.50;;
22015;SDS011;64992;51.698;-0.292;2022-11-18T08:23:00;9.55;;;1.95;;
22015;SDS011;64992;51.698;-0.292;2022-11-18T08:25:26;6.55;;;2.35;;
22015;SDS011;64992;51.698;-0.292;2022-11-18T08:27:53;4.47;;;1.95;;
22015;SDS011;64992;51.698;-0.292;2022-11-18T08:30:19;11.27;;;2.60;;
22015;SDS011;64992;51.698;-0.292;2022-11-18T08:32:45;8.38;;;2.20;;
22015;SDS011;64992;51.698;-0.292;2022-11-18T08:35:11;8.15;;;2.20;;
22015;SDS011;64992;51.698;-0.292;2022-11-18T08:37:37;6.82;;;2.13;;
22015;SDS011;64992;51.698;-0.292;2022-11-18T08:40:03;9.30;;;1.70;;
22015;SDS011;64992;51.698;-0.292;2022-11-18T08:42:29;5.10;;;2.22;;
22015;SDS011;64992;51.698;-0.292;2022-11-18T08:44:55;11.55;;;2.67;;
22015;SDS011;64992;51.698;-0.292;2022-11-18T08:47:21;6.80;;;2.05;;
22015;SDS011;64992;51.698;-0.292;2022-11-18T08:49:47;9.10;;;2.60;;
22015;SDS011;64992;51.698;-0.292;2022-11-18T08:52:13;7.20;;;2.28;;
22015;SDS011;64992;51.698;-0.292;2022-11-18T08:54:39;8.40;;;2.47;;
22015;SDS011;64992;51.698;-0.292;2022-11-18T08:57:05;12.05;;;2.50;;
22015;SDS011;64992;51.698;-0.292;2022-11-18T08:59:31;9.43;;;2.53;;
22015;SDS011;64992;51.698;-0.292;2022-11-18T09:01:57;18.17;;;3.67;;
22015;SDS011;64992;51.698;-0.292;2022-11-18T09:04:26;5.82;;;2.28;;
22015;SDS011;64992;51.698;-0.292;2022-11-18T09:07:12;7.28;;;2.05;;
22015;SDS011;64992;51.698;-0.292;2022-11-18T09:09:38;8.70;;;2.03;;
22015;SDS011;64992;51.698;-0.292;2022-11-18T09:12:04;3.78;;;1.73;;
22015;SDS011;64992;51.698;-0.292;2022-11-18T09:14:31;11.07;;;2.70;;
22015;SDS011;64992;51.698;-0.292;2022-11-18T09:16:57;10.85;;;2.25;;
22015;SDS011;64992;51.698;-0.292;2022-11-18T09:19:23;3.33;;;2.33;;
22015;SDS011;64992;51.698;-0.292;2022-11-18T09:21:49;6.82;;;2.33;;
22015;SDS011;64992;51.698;-0.292;2022-11-18T09:24:15;8.35;;;2.60;;
22015;SDS011;64992;51.698;-0.292;2022-11-18T09:26:41;12.38;;;2.40;;
22015;SDS011;64992;51.698;-0.292;2022-11-18T09:29:07;6.00;;;2.25;;
22015;SDS011;64992;51.698;-0.292;2022-11-18T09:31:35;10.18;;;2.50;;
22015;SDS011;64992;51.698;-0.292;2022-11-18T09:34:01;6.90;;;2.00;;
22015;SDS011;64992;51.698;-0.292;2022-11-18T09:36:29;10.40;;;2.10;;
22015;SDS011;64992;51.698;-0.292;2022-11-18T09:38:55;8.13;;;2.08;;
22015;SDS011;64992;51.698;-0.292;2022-11-18T09:49:41;8.23;;;2.67;;
22015;SDS011;64992;51.698;-0.292;2022-11-18T09:52:19;12.52;;;2.30;;
22015;SDS011;64992;51.698;-0.292;2022-11-18T09:54:46;6.95;;;2.40;;
22015;SDS011;64992;51.698;-0.292;2022-11-18T09:57:35;6.18;;;2.28;;
22015;SDS011;64992;51.698;-0.292;2022-11-18T09:59:59;7.10;;;2.53;;
22015;SDS011;64992;51.698;-0.292;2022-11-18T10:02:36;7.70;;;2.35;;
22015;SDS011;64992;51.698;-0.292;2022-11-18T10:05:17;9.35;;;2.22;;
22015;SDS011;64992;51.698;-0.292;2022-11-18T10:07:54;5.93;;;2.22;;
22015;SDS011;64992;51.698;-0.292;2022-11-18T10:10:32;11.93;;;2.67;;
22015;SDS011;64992;51.698;-0.292;2022-11-18T10:13:01;4.13;;;2.22;;
22015;SDS011;64992;51.698;-0.292;2022-11-18T10:15:34;4.20;;;1.85;;
22015;SDS011;64992;51.698;-0.292;2022-11-18T10:23:13;10.57;;;1.85;;
22015;SDS011;64992;51.698;-0.292;2022-11-18T10:25:41;3.67;;;1.50;;
22015;SDS011;64992;51.698;-0.292;2022-11-18T10:28:26;6.93;;;1.77;;
22015;SDS011;64992;51.698;-0.292;2022-11-18T10:31:06;4.78;;;1.60;;
22015;SDS011;64992;51.698;-0.292;2022-11-18T10:33:32;5.18;;;1.35;;
22015;SDS011;64992;51.698;-0.292;2022-11-18T10:38:43;3.42;;;1.38;;
22015;SDS011;64992;51.698;-0.292;2022-11-18T10:41:13;8.52;;;1.58;;
22015;SDS011;64992;51.698;-0.292;2022-11-18T10:43:41;5.72;;;1.20;;
22015;SDS011;64992;51.698;-0.292;2022-11-18T10:46:14;7.28;;;1.83;;
22015;SDS011;64992;51.698;-0.292;2022-11-18T10:48:40;6.20;;;1.80;;
22015;SDS011;64992;51.698;-0.292;2022-11-18T10:51:19;3.28;;;1.40;;
22015;SDS011;64992;51.698;-0.292;2022-11-18T10:53:46;4.30;;;1.55;;
22015;SDS011;64992;51.698;-0.292;2022-11-18T10:56:12;4.82;;;1.70;;
22015;SDS011;64992;51.698;-0.292;2022-11-18T10:58:40;5.30;;;1.80;;
22015;SDS011;64992;51.698;-0.292;2022-11-18T11:01:28;2.53;;;1.80;;
22015;SDS011;64992;51.698;-0.292;2022-11-18T11:04:03;4.03;;;1.33;;
22015;SDS011;64992;51.698;-0.292;2022-11-18T11:09:09;10.05;;;2.17;;
22015;SDS011;64992;51.698;-0.292;2022-11-18T11:14:26;4.47;;;1.60;;
22015;SDS011;64992;51.698;-0.292;2022-11-18T11:17:04;5.32;;;1.75;;
22015;SDS011;64992;51.698;-0.292;2022-11-18T11:19:46;4.80;;;2.10;;
22015;SDS011;64992;51.698;-0.292;2022-11-18T11:22:13;6.25;;;1.70;;
22015;SDS011;64992;51.698;-0.292;2022-11-18T11:24:39;8.02;;;1.58;;
22015;SDS011;64992;51.698;-0.292;2022-11-18T11:27:09;6.88;;;1.92;;
22015;SDS011;64992;51.698;-0.292;2022-11-18T11:29:51;8.23;;;1.65;;
22015;SDS011;64992;51.698;-0.292;2022-11-18T11:32:18;3.55;;;1.45;;
22015;SDS011;64992;51.698;-0.292;2022-11-18T11:37:27;4.07;;;1.55;;
22015;SDS011;64992;51.698;-0.292;2022-11-18T11:42:28;3.78;;;1.58;;
22015;SDS011;64992;51.698;-0.292;2022-11-18T11:55:24;2.72;;;1.10;;
22015;SDS011;64992;51.698;-0.292;2022-11-18T12:03:46;5.90;;;1.20;;
22015;SDS011;64992;51.698;-0.292;2022-11-18T12:06:13;5.95;;;1.58;;
22015;SDS011;64992;51.698;-0.292;2022-11-18T12:08:51;5.68;;;1.15;;
22015;SDS011;64992;51.698;-0.292;2022-11-18T12:11:35;7.57;;;2.58;;
22015;SDS011;64992;51.698;-0.292;2022-11-18T12:14:09;3.53;;;1.70;;
22015;SDS011;64992;51.698;-0.292;2022-11-18T12:26:43;6.50;;;1.45;;
22015;SDS011;64992;51.698;-0.292;2022-11-18T12:31:51;5.57;;;1.67;;
22015;SDS011;64992;51.698;-0.292;2022-11-18T12:36:49;4.47;;;1.63;;
22015;SDS011;64992;51.698;-0.292;2022-11-18T12:41:58;2.33;;;1.05;;
22015;SDS011;64992;51.698;-0.292;2022-11-18T12:44:44;2.80;;;1.33;;
22015;SDS011;64992;51.698;-0.292;2022-11-18T12:47:10;5.07;;;1.45;;
22015;SDS011;64992;51.698;-0.292;2022-11-18T12:52:04;4.97;;;1.90;;
22015;SDS011;64992;51.698;-0.292;2022-11-18T12:54:36;6.57;;;1.77;;
22015;SDS011;64992;51.698;-0.292;2022-11-18T12:57:10;4.50;;;1.20;;
22015;SDS011;64992;51.698;-0.292;2022-11-18T12:59:38;4.85;;;1.60;;
22015;SDS011;64992;51.698;-0.292;2022-11-18T13:04:36;4.97;;;1.30;;
22015;SDS011;64992;51.698;-0.292;2022-11-18T13:07:04;3.72;;;1.42;;
22015;SDS011;64992;51.698;-0.292;2022-11-18T13:09:32;4.50;;;1.50;;
22015;SDS011;64992;51.698;-0.292;2022-11-18T13:12:06;2.40;;;1.13;;
22015;SDS011;64992;51.698;-0.292;2022-11-18T13:14:33;2.05;;;1.05;;
22015;SDS011;64992;51.698;-0.292;2022-11-18T13:17:22;3.03;;;1.20;;
22015;SDS011;64992;51.698;-0.292;2022-11-18T13:22:59;5.00;;;1.98;;
22015;SDS011;64992;51.698;-0.292;2022-11-18T13:25:45;4.25;;;1.35;;
22015;SDS011;64992;51.698;-0.292;2022-11-18T13:30:51;4.28;;;1.20;;
22015;SDS011;64992;51.698;-0.292;2022-11-18T13:33:19;4.37;;;1.37;;
22015;SDS011;64992;51.698;-0.292;2022-11-18T13:35:45;4.00;;;1.40;;
22015;SDS011;64992;51.698;-0.292;2022-11-18T13:38:23;5.22;;;1.25;;
22015;SDS011;64992;51.698;-0.292;2022-11-18T13:40:50;1.92;;;1.20;;
22015;SDS011;64992;51.698;-0.292;2022-11-18T13:43:28;4.25;;;1.27;;
22015;SDS011;64992;51.698;-0.292;2022-11-18T13:45:55;6.68;;;1.63;;
22015;SDS011;64992;51.698;-0.292;2022-11-18T13:48:21;2.78;;;1.33;;
22015;SDS011;64992;51.698;-0.292;2022-11-18T13:50:49;4.88;;;1.30;;
22015;SDS011;64992;51.698;-0.292;2022-11-18T13:55:49;2.47;;;1.17;;
22015;SDS011;64992;51.698;-0.292;2022-11-18T14:00:42;3.10;;;1.38;;
22015;SDS011;64992;51.698;-0.292;2022-11-18T14:03:23;1.65;;;1.10;;
22015;SDS011;64992;51.698;-0.292;2022-11-18T14:05:52;5.20;;;1.40;;
22015;SDS011;64992;51.698;-0.292;2022-11-18T14:08:21;4.28;;;1.42;;
22015;SDS011;64992;51.698;-0.292;2022-11-18T14:10:49;3.53;;;1.10;;
22015;SDS011;64992;51.698;-0.292;2022-11-18T14:13:17;1.85;;;1.00;;
22015;SDS011;64992;51.698;-0.292;2022-11-18T14:15:43;2.97;;;1.23;;
22015;SDS011;64992;51.698;-0.292;2022-11-18T14:18:17;3.28;;;1.45;;
22015;SDS011;64992;51.698;-0.292;2022-11-18T14:20:51;2.58;;;1.20;;
22015;SDS011;64992;51.698;-0.292;2022-11-18T14:23:18;4.22;;;1.52;;
22015;SDS011;64992;51.698;-0.292;2022-11-18T14:25:45;6.40;;;1.40;;
22015;SDS011;64992;51.698;-0.292;2022-11-18T14:28:12;5.97;;;1.48;;
22015;SDS011;64992;51.698;-0.292;2022-11-18T14:33:41;3.88;;;1.42;;
22015;SDS011;64992;51.698;-0.292;2022-11-18T14:36:08;7.25;;;1.42;;
22015;SDS011;64992;51.698;-0.292;2022-11-18T14:38:53;1.65;;;1.17;;
22015;SDS011;64992;51.698;-0.292;2022-11-18T14:41:19;2.95;;;1.40;;
22015;SDS011;64992;51.698;-0.292;2022-11-18T14:44:05;1.98;;;1.10;;
22015;SDS011;64992;51.698;-0.292;2022-11-18T14:46:32;1.50;;;1.00;;
22015;SDS011;64992;51.698;-0.292;2022-11-18T14:49:00;3.40;;;1.10;;
22015;SDS011;64992;51.698;-0.292;2022-11-18T14:51:26;3.05;;;1.00;;
22015;SDS011;64992;51.698;-0.292;2022-11-18T14:53:52;2.42;;;1.20;;
22015;SDS011;64992;51.698;-0.292;2022-11-18T14:56:23;3.38;;;1.25;;
22015;SDS011;64992;51.698;-0.292;2022-11-18T14:58:51;2.60;;;1.17;;
22015;SDS011;64992;51.698;-0.292;2022-11-18T15:01:17;5.85;;;1.08;;
22015;SDS011;64992;51.698;-0.292;2022-11-18T15:03:43;3.20;;;1.15;;
22015;SDS011;64992;51.698;-0.292;2022-11-18T15:06:12;1.80;;;1.00;;
22015;SDS011;64992;51.698;-0.292;2022-11-18T15:08:38;2.65;;;1.05;;
22015;SDS011;64992;51.698;-0.292;2022-11-18T15:11:04;3.10;;;1.38;;
22015;SDS011;64992;51.698;-0.292;2022-11-18T15:13:30;3.63;;;1.23;;
22015;SDS011;64992;51.698;-0.292;2022-11-18T15:15:56;4.85;;;1.33;;
22015;SDS011;64992;51.698;-0.292;2022-11-18T15:18:22;2.80;;;1.30;;
22015;SDS011;64992;51.698;-0.292;2022-11-18T15:20:52;2.30;;;1.20;;
22015;SDS011;64992;51.698;-0.292;2022-11-18T15:23:18;2.80;;;0.95;;
22015;SDS011;64992;51.698;-0.292;2022-11-18T15:25:44;3.42;;;1.25;;
22015;SDS011;64992;51.698;-0.292;2022-11-18T15:28:10;1.88;;;1.13;;
22015;SDS011;64992;51.698;-0.292;2022-11-18T15:30:36;6.03;;;0.98;;
22015;SDS011;64992;51.698;-0.292;2022-11-18T15:33:03;1.90;;;1.17;;
22015;SDS011;64992;51.698;-0.292;2022-11-18T15:35:29;2.65;;;1.25;;
22015;SDS011;64992;51.698;-0.292;2022-11-18T15:37:55;1.42;;;0.93;;
22015;SDS011;64992;51.698;-0.292;2022-11-18T15:40:21;1.13;;;0.90;;
22015;SDS011;64992;51.698;-0.292;2022-11-18T15:42:47;4.10;;;1.15;;
22015;SDS011;64992;51.698;-0.292;2022-11-18T15:45:12;2.92;;;1.40;;
22015;SDS011;64992;51.698;-0.292;2022-11-18T15:47:39;3.85;;;1.30;;
22015;SDS011;64992;51.698;-0.292;2022-11-18T15:50:05;2.60;;;0.93;;
22015;SDS011;64992;51.698;-0.292;2022-11-18T15:52:31;5.13;;;1.20;;
22015;SDS011;64992;51.698;-0.292;2022-11-18T15:54:57;2.00;;;0.90;;
22015;SDS011;64992;51.698;-0.292;2022-11-18T15:57:23;4.07;;;1.17;;
22015;SDS011;64992;51.698;-0.292;2022-11-18T15:59:49;2.72;;;1.20;;
22015;SDS011;64992;51.698;-0.292;2022-11-18T16:02:15;6.82;;;1.38;;
22015;SDS011;64992;51.698;-0.292;2022-11-18T16:04:41;1.85;;;0.93;;
22015;SDS011;64992;51.698;-0.292;2022-11-18T16:07:07;6.65;;;1.10;;
22015;SDS011;64992;51.698;-0.292;2022-11-18T16:09:33;3.00;;;1.00;;
22015;SDS011;64992;51.698;-0.292;2022-11-18T16:12:18;6.32;;;1.42;;
22015;SDS011;64992;51.698;-0.292;2022-11-18T16:15:03;1.25;;;1.08;;
22015;SDS011;64992;51.698;-0.292;2022-11-18T16:18:05;2.28;;;1.10;;
22015;SDS011;64992;51.698;-0.292;2022-11-18T16:20:31;3.08;;;1.40;;
22015;SDS011;64992;51.698;-0.292;2022-11-18T16:22:57;6.13;;;1.95;;
22015;SDS011;64992;51.698;-0.292;2022-11-18T16:25:23;6.95;;;1.17;;
22015;SDS011;64992;51.698;-0.292;2022-11-18T16:27:51;5.97;;;1.63;;
22015;SDS011;64992;51.698;-0.292;2022-11-18T16:30:17;5.40;;;1.38;;
22015;SDS011;64992;51.698;-0.292;2022-11-18T16:33:02;5.05;;;1.52;;